Terminal Aerodrome Forecast
Issued by NWS Charleston, WV

Current Version | Previous Version | Graphics & Text | Print | Product List | Glossary On
Versions: 1 2 3 4 5 6 7 8 9 10 11 12 13 14 15 16 17 18 19 20 21 22 23
460
FTUS41 KRLX 252333
TAFPKB
TAF
KPKB 252333Z 2600/2624 24005KT P6SM OVC029
     FM260100 24005KT 4SM SHRA OVC015
     FM260200 23004KT 4SM SHRA OVC008
     FM260400 23006KT 6SM SHRA OVC011
     FM260600 26009KT P6SM OVC011
     FM261800 27009KT P6SM SCT040=

USA.gov is the U.S. government's official web portal to all federal, state and local government web resources and services.